Time;durP1;ratioP1;P1;durP2;ratioP2;P2;SDS_P1;SDS_P2;PMS_P1;PMS_P2;Temp;Humidity;BMP_temperature;BMP_pressure;BME280_temperature;BME280_humidity;BME280_pressure;Samples;Min_cycle;Max_cycle;Signal;HPM_P1;HPM_P2
2022/11/08 00:01:45;;;;;;;5.15;1.30;;;;;;;-142.75;100.00;76611.63;5119492;27;20395;-69
2022/11/08 00:04:13;;;;;;;8.95;1.63;;;;;;;-142.75;100.00;76609.66;5119146;27;20019;-67
2022/11/08 00:14:52;;;;;;;8.50;1.67;;;;;;;-142.75;100.00;76623.44;5098604;28;20034;-67
2022/11/08 00:17:20;;;;;;;8.90;1.45;;;;;;;-142.75;100.00;76611.63;5097728;28;20023;-63
2022/11/08 00:19:45;;;;;;;7.75;1.90;;;;;;;-142.75;100.00;76609.66;5098499;28;20068;-66
2022/11/08 00:22:11;;;;;;;6.82;1.38;;;;;;;-142.75;100.00;76609.66;5098385;28;20429;-65
2022/11/08 00:24:36;;;;;;;8.13;1.65;;;;;;;-142.75;100.00;76609.66;5098555;28;20034;-65
2022/11/08 00:27:07;;;;;;;7.60;1.55;;;;;;;-142.75;100.00;76611.63;5097253;28;20024;-65
2022/11/08 00:29:34;;;;;;;6.68;1.55;;;;;;;-142.75;100.00;76613.59;5097960;28;20016;-63
2022/11/08 00:32:00;;;;;;;7.90;1.17;;;;;;;-142.75;100.00;76617.53;5097662;28;20023;-65
2022/11/08 00:34:26;;;;;;;6.80;1.42;;;;;;;-142.75;100.00;76621.47;5098502;28;20023;-65
2022/11/08 00:36:52;;;;;;;9.80;1.60;;;;;;;-142.75;100.00;76617.53;5097445;28;20053;-65
2022/11/08 00:39:18;;;;;;;9.73;1.83;;;;;;;-142.75;100.00;76617.53;5098420;28;20027;-65
2022/11/08 00:41:43;;;;;;;6.47;1.65;;;;;;;-142.75;100.00;76613.59;5098075;28;20546;-63
2022/11/08 00:44:09;;;;;;;4.60;1.45;;;;;;;-142.75;100.00;76615.56;5098079;28;20027;-62
2022/11/08 00:46:34;;;;;;;;;;;;;;;-142.75;100.00;76615.56;5080096;28;20392;-62
2022/11/08 00:49:00;;;;;;;12.20;1.58;;;;;;;-142.75;100.00;76615.56;5079034;28;19920;-65
2022/11/08 00:51:25;;;;;;;5.38;1.27;;;;;;;-142.75;100.00;76617.53;5097985;28;20548;-62
2022/11/08 00:53:50;;;;;;;6.60;1.27;;;;;;;-142.75;100.00;76605.72;5097932;28;20034;-64
2022/11/08 00:56:16;;;;;;;6.45;1.58;;;;;;;-142.75;100.00;76609.66;5079596;28;20538;-65
2022/11/08 00:58:42;;;;;;;8.93;1.70;;;;;;;-142.75;100.00;76619.50;5097446;28;20112;-65
2022/11/08 01:01:13;;;;;;;4.10;1.60;;;;;;;-142.75;100.00;76607.69;5097371;28;20618;-65
2022/11/08 01:03:38;;;;;;;5.03;1.30;;;;;;;-142.75;100.00;76601.78;5097804;28;20034;-66
2022/11/08 01:06:05;;;;;;;7.80;1.42;;;;;;;-142.75;100.00;76613.59;5097358;28;20039;-66
2022/11/08 01:08:31;;;;;;;8.20;1.63;;;;;;;-142.75;100.00;76617.53;5097433;28;20161;-63
2022/11/08 01:11:01;;;;;;;6.00;1.25;;;;;;;-142.75;100.00;76617.53;5097267;28;20810;-65
2022/11/08 01:13:26;;;;;;;6.47;1.70;;;;;;;-142.75;100.00;76625.41;5079545;28;20035;-65
2022/11/08 01:15:51;;;;;;;8.52;1.95;;;;;;;-142.75;100.00;76621.47;5097327;28;20043;-64
2022/11/08 01:18:17;;;;;;;;;;;;;;;-142.75;100.00;76629.34;5096478;28;20019;-65
2022/11/08 01:20:44;;;;;;;6.85;1.45;;;;;;;-142.75;100.00;76637.22;5097364;28;19968;-63
2022/11/08 01:23:10;;;;;;;8.07;1.45;;;;;;;-142.75;100.00;76651.00;5097437;28;20080;-66
2022/11/08 01:25:44;;;;;;;12.63;1.35;;;;;;;-142.75;100.00;76635.25;5097496;28;20488;-66
2022/11/08 01:28:11;;;;;;;9.73;1.80;;;;;;;-142.75;100.00;76645.09;5096578;28;20032;-66
2022/11/08 01:30:40;;;;;;;7.60;1.63;;;;;;;-142.75;100.00;76635.25;5097435;28;20027;-66
2022/11/08 01:33:06;;;;;;;9.25;1.80;;;;;;;-142.75;100.00;76647.06;5096590;28;20037;-66
2022/11/08 01:35:33;;;;;;;7.30;1.33;;;;;;;-142.75;100.00;76652.97;5079346;28;20884;-67
2022/11/08 01:37:59;;;;;;;9.27;1.88;;;;;;;-142.75;100.00;76651.00;5094642;28;20025;-63
2022/11/08 01:40:26;;;;;;;9.70;1.70;;;;;;;-142.75;100.00;76666.75;5079293;28;20046;-66
2022/11/08 01:42:51;;;;;;;5.80;1.58;;;;;;;-142.75;100.00;76664.78;5097233;28;20053;-66
2022/11/08 01:45:54;;;;;;;6.28;1.70;;;;;;;-142.75;100.00;76647.06;5097634;28;20180;-66
2022/11/08 01:48:20;;;;;;;9.55;1.67;;;;;;;-142.75;100.00;76654.94;5096203;28;20799;-64
2022/11/08 01:50:46;;;;;;;6.18;1.50;;;;;;;-142.75;100.00;76654.94;5097129;28;20023;-65
2022/11/08 01:53:11;;;;;;;6.07;1.50;;;;;;;-142.75;100.00;76652.97;5097092;28;20019;-65
2022/11/08 01:55:36;;;;;;;4.97;1.60;;;;;;;-142.75;100.00;76654.94;5097392;28;20038;-63
2022/11/08 01:58:06;;;;;;;;;;;;;;;-142.75;100.00;76660.84;5078240;28;20023;-65
2022/11/08 02:00:32;;;;;;;5.90;1.27;;;;;;;-142.75;100.00;76649.03;5097308;28;19923;-65
2022/11/08 02:03:00;;;;;;;7.63;1.40;;;;;;;-142.75;100.00;76649.03;5097102;28;20016;-63
2022/11/08 02:05:28;;;;;;;6.00;1.20;;;;;;;-142.75;100.00;76652.97;5097195;28;20393;-66
2022/11/08 02:07:53;;;;;;;6.65;1.50;;;;;;;-142.75;100.00;76668.72;5097110;28;20012;-65
2022/11/08 02:10:22;;;;;;;7.33;1.30;;;;;;;-142.75;100.00;76652.97;5096546;28;20361;-64
2022/11/08 02:12:47;;;;;;;6.43;1.58;;;;;;;-142.75;100.00;76660.84;5095928;28;20281;-63
2022/11/08 02:15:15;;;;;;;11.38;1.60;;;;;;;-142.75;100.00;76656.91;5097307;28;20026;-65
2022/11/08 02:17:40;;;;;;;4.40;1.13;;;;;;;-142.75;100.00;76664.78;5096337;28;20812;-65
2022/11/08 02:20:06;;;;;;;5.78;1.52;;;;;;;-142.75;100.00;76668.72;5078263;28;20105;-66
2022/11/08 02:22:40;;;;;;;4.55;1.42;;;;;;;-142.75;100.00;76664.78;5096423;28;20020;-63
2022/11/08 02:25:05;;;;;;;9.13;1.90;;;;;;;-142.75;100.00;76680.53;5078061;28;20024;-64
2022/11/08 02:27:31;;;;;;;3.85;1.58;;;;;;;-142.75;100.00;76680.53;5096353;28;20396;-65
2022/11/08 02:29:56;;;;;;;8.05;1.40;;;;;;;-142.75;100.00;76668.72;5079538;28;20058;-65
2022/11/08 02:32:22;;;;;;;9.85;1.77;;;;;;;-142.75;100.00;76684.47;5100721;28;20092;-65
2022/11/08 02:34:56;;;;;;;6.90;1.58;;;;;;;-142.75;100.00;76670.69;5100682;28;20020;-65
2022/11/08 02:37:22;;;;;;;4.10;1.58;;;;;;;-142.75;100.00;76674.63;5100304;28;20031;-66
2022/11/08 02:39:48;;;;;;;7.22;1.38;;;;;;;-142.75;100.00;76662.81;5101229;28;20055;-66
2022/11/08 02:42:17;;;;;;;7.75;1.67;;;;;;;-142.75;100.00;76668.72;5100758;28;20020;-66
2022/11/08 02:44:42;;;;;;;8.32;1.83;;;;;;;-142.75;100.00;76672.66;5100804;28;20420;-64
2022/11/08 02:47:08;;;;;;;6.55;1.60;;;;;;;-142.75;100.00;76668.72;5099726;28;20035;-62
2022/11/08 02:49:33;;;;;;;6.28;1.38;;;;;;;-142.75;100.00;76666.75;5100165;28;20126;-65
2022/11/08 02:51:58;;;;;;;8.85;1.70;;;;;;;-142.75;100.00;76645.09;5099775;28;20035;-62
2022/11/08 02:54:24;;;;;;;7.53;1.80;;;;;;;-142.75;100.00;76643.13;5100289;28;20019;-65
2022/11/08 02:56:49;;;;;;;6.43;1.65;;;;;;;-142.75;100.00;76649.03;5099485;28;20020;-65
2022/11/08 02:59:14;;;;;;;7.55;1.73;;;;;;;-142.75;100.00;76631.31;5081842;28;20023;-63
2022/11/08 03:01:40;;;;;;;6.05;1.73;;;;;;;-142.75;100.00;76639.19;5100180;28;20377;-63
2022/11/08 03:04:05;;;;;;;6.20;1.50;;;;;;;-142.75;100.00;76629.34;5099727;28;20020;-63
2022/11/08 03:06:30;;;;;;;6.78;1.60;;;;;;;-142.75;100.00;76635.25;5099911;28;20026;-62
2022/11/08 03:08:56;;;;;;;2.78;1.23;;;;;;;-142.75;100.00;76631.31;5081886;28;20024;-66
2022/11/08 03:11:21;;;;;;;5.32;1.40;;;;;;;-142.75;100.00;76615.56;5099768;28;20035;-66
2022/11/08 03:13:46;;;;;;;7.80;1.70;;;;;;;-142.75;100.00;76609.66;5099756;28;20142;-66
2022/11/08 03:16:12;;;;;;;8.63;1.27;;;;;;;-142.75;100.00;76621.47;5081530;28;20019;-65
2022/11/08 03:18:37;;;;;;;6.45;1.55;;;;;;;-142.75;100.00;76603.75;5099285;28;20817;-65
2022/11/08 03:21:03;;;;;;;5.63;1.77;;;;;;;-142.75;100.00;76617.53;5099290;28;20027;-65
2022/11/08 03:23:28;;;;;;;6.53;1.52;;;;;;;-142.75;100.00;76613.59;5100055;28;20039;-65
2022/11/08 03:25:54;;;;;;;5.15;1.40;;;;;;;-142.75;100.00;76609.66;5099408;28;20026;-65
2022/11/08 03:28:19;;;;;;;6.68;1.58;;;;;;;-142.75;100.00;76617.53;5098791;28;20028;-67
2022/11/08 03:30:44;;;;;;;4.97;1.35;;;;;;;-142.75;100.00;76601.78;5081443;28;20027;-64
2022/11/08 03:33:10;;;;;;;6.15;1.63;;;;;;;-142.75;100.00;76599.81;5081265;28;20047;-66
2022/11/08 03:35:35;;;;;;;8.52;1.48;;;;;;;-142.75;100.00;76595.88;5081604;28;20801;-65
2022/11/08 03:38:00;;;;;;;10.90;1.50;;;;;;;-142.75;100.00;76576.19;5080409;28;20059;-64
2022/11/08 03:40:26;;;;;;;11.15;1.75;;;;;;;-142.75;100.00;76584.06;5081565;28;20042;-64
2022/11/08 03:42:54;;;;;;;8.05;1.73;;;;;;;-142.75;100.00;76588.00;5098388;28;20034;-63
2022/11/08 03:45:19;;;;;;;6.25;1.70;;;;;;;-142.75;100.00;76584.06;5099490;28;20106;-64
2022/11/08 03:47:46;;;;;;;4.88;1.85;;;;;;;-142.75;100.00;76591.94;5097956;28;20395;-64
2022/11/08 03:50:13;;;;;;;3.08;1.38;;;;;;;-142.75;100.00;76580.13;5080779;28;21157;-66
2022/11/08 03:52:51;;;;;;;5.28;1.58;;;;;;;-142.75;100.00;76595.88;5081048;28;20116;-66
2022/11/08 03:55:19;;;;;;;6.70;1.67;;;;;;;-142.75;100.00;76593.91;5099130;28;20023;-66
2022/11/08 03:57:46;;;;;;;7.30;2.05;;;;;;;-142.75;100.00;76595.88;5098077;28;20024;-63
2022/11/08 04:00:12;;;;;;;7.47;1.35;;;;;;;-142.75;100.00;76601.78;5098870;28;20020;-65
2022/11/08 04:02:38;;;;;;;4.00;1.60;;;;;;;-142.75;100.00;76593.91;5099132;28;20034;-66
2022/11/08 04:05:04;;;;;;;;;;;;;;;-142.75;100.00;76593.91;5099162;28;22073;-66
2022/11/08 04:07:30;;;;;;;7.82;1.50;;;;;;;-142.75;100.00;76591.94;5080154;28;19918;-65
2022/11/08 04:09:55;;;;;;;4.22;1.23;;;;;;;-142.75;100.00;76584.06;5099146;28;20049;-66
2022/11/08 04:15:14;;;;;;;13.32;1.73;;;;;;;-142.75;100.00;76558.47;5098853;28;20065;-66
2022/11/08 04:23:14;;;;;;;7.45;1.40;;;;;;;-142.75;100.00;76540.75;5098276;28;20120;-64
2022/11/08 04:25:40;;;;;;;4.72;1.23;;;;;;;-142.75;100.00;76527.00;5098025;28;20505;-66
2022/11/08 04:28:05;;;;;;;9.82;1.42;;;;;;;-142.75;100.00;76534.84;5096530;28;20031;-66
2022/11/08 04:30:32;;;;;;;5.28;1.45;;;;;;;-142.75;100.00;76530.91;5098013;28;20306;-65
2022/11/08 04:33:02;;;;;;;4.47;1.40;;;;;;;-142.75;100.00;76525.03;5078919;28;20541;-64
2022/11/08 04:35:28;;;;;;;3.58;1.40;;;;;;;-142.75;100.00;76523.06;5098281;28;20028;-64
2022/11/08 04:37:58;;;;;;;4.05;1.13;;;;;;;-142.75;100.00;76530.91;5078690;28;20033;-65
2022/11/08 04:40:24;;;;;;;10.20;1.70;;;;;;;-142.75;100.00;76532.88;5098090;28;20031;-64
2022/11/08 04:42:49;;;;;;;5.28;1.40;;;;;;;-142.75;100.00;76527.00;5097790;28;20012;-63
2022/11/08 04:45:14;;;;;;;6.72;1.45;;;;;;;-142.75;100.00;76532.88;5097909;28;20019;-67
2022/11/08 04:47:40;;;;;;;5.75;1.60;;;;;;;-142.75;100.00;76521.09;5097305;28;20111;-65
2022/11/08 04:50:05;;;;;;;3.20;1.40;;;;;;;-142.75;100.00;76525.03;5096638;28;20035;-66
2022/11/08 04:52:31;;;;;;;3.83;1.30;;;;;;;-142.75;100.00;76527.00;5078965;28;20443;-66
2022/11/08 04:54:56;;;;;;;4.72;1.52;;;;;;;-142.75;100.00;76519.13;5096727;28;20388;-66
2022/11/08 04:57:22;;;;;;;;;;;;;;;-142.75;100.00;76511.25;5078689;28;20108;-66
2022/11/08 04:59:52;;;;;;;3.10;1.05;;;;;;;-142.75;100.00;76503.38;5096835;28;19972;-66
2022/11/08 05:02:17;;;;;;;2.85;1.23;;;;;;;-142.75;100.00;76511.25;5097195;28;20020;-66
2022/11/08 05:04:43;;;;;;;3.22;1.10;;;;;;;-142.75;100.00;76495.50;5078916;28;20396;-64
2022/11/08 05:07:08;;;;;;;3.38;1.08;;;;;;;-142.75;100.00;76497.47;5077961;28;20134;-65
2022/11/08 05:09:33;;;;;;;5.93;1.45;;;;;;;-142.75;100.00;76481.72;5097774;28;20030;-66
2022/11/08 05:11:58;;;;;;;5.47;1.08;;;;;;;-142.75;100.00;76467.94;5096609;28;20801;-65
2022/11/08 05:14:24;;;;;;;5.15;1.15;;;;;;;-142.75;100.00;76477.78;5097181;28;20101;-66
2022/11/08 05:16:49;;;;;;;6.18;1.20;;;;;;;-142.75;100.00;76464.00;5096699;28;22477;-66
2022/11/08 05:23:22;;;;;;;2.00;0.88;;;;;;;-142.75;100.00;76460.06;5096509;28;20035;-66
2022/11/08 05:24:44;;;;;;;4.22;1.05;;;;;;;-142.75;100.00;76456.13;5098964;28;20096;-64
2022/11/08 05:27:09;;;;;;;4.22;1.63;;;;;;;-142.75;100.00;76448.25;5098663;28;20130;-66
2022/11/08 05:29:34;;;;;;;4.10;1.10;;;;;;;-142.75;100.00;76444.31;5099087;28;20024;-64
2022/11/08 05:32:00;;;;;;;6.90;1.17;;;;;;;-142.75;100.00;76446.28;5098991;28;20544;-66
2022/11/08 05:34:25;;;;;;;4.55;1.10;;;;;;;-142.75;100.00;76454.16;5099330;28;20078;-66
2022/11/08 05:36:50;;;;;;;5.75;1.15;;;;;;;-142.75;100.00;76452.19;5098417;28;20039;-66
2022/11/08 05:39:16;;;;;;;;;;;;;;;-142.75;100.00;76458.09;5099585;28;20434;-67
2022/11/08 05:41:41;;;;;;;3.95;0.88;;;;;;;-142.75;100.00;76458.09;5081338;28;19916;-66
2022/11/08 05:44:06;;;;;;;4.80;1.20;;;;;;;-142.75;100.00;76467.94;5098819;28;20609;-64
2022/11/08 05:46:31;;;;;;;4.85;1.20;;;;;;;-142.75;100.00;76469.91;5098916;28;20027;-64
2022/11/08 05:48:57;;;;;;;5.80;1.20;;;;;;;-142.75;100.00;76473.84;5080370;28;20124;-66
2022/11/08 05:51:22;;;;;;;2.75;0.93;;;;;;;-142.75;100.00;76477.78;5080663;28;20025;-67
2022/11/08 05:53:47;;;;;;;3.00;1.02;;;;;;;-142.75;100.00;76477.78;5099232;28;20032;-66
2022/11/08 05:56:13;;;;;;;2.95;1.17;;;;;;;-142.75;100.00;76483.69;5099045;28;20024;-66
2022/11/08 05:58:38;;;;;;;2.72;1.00;;;;;;;-142.75;100.00;76487.63;5098355;28;20019;-66
2022/11/08 06:01:05;;;;;;;6.10;1.35;;;;;;;-142.75;100.00;76473.84;5098372;28;20023;-64
2022/11/08 06:03:31;;;;;;;3.90;1.05;;;;;;;-142.75;100.00;76479.75;5099180;28;20038;-66
2022/11/08 06:06:02;;;;;;;2.67;0.98;;;;;;;-142.75;100.00;76475.81;5083699;28;20027;-67
2022/11/08 06:08:27;;;;;;;4.53;1.05;;;;;;;-142.75;100.00;76471.88;5102931;28;20020;-65
2022/11/08 06:10:52;;;;;;;3.00;1.30;;;;;;;-142.75;100.00;76479.75;5125032;22;20047;-68
2022/11/08 06:13:18;;;;;;;3.92;1.10;;;;;;;-142.75;100.00;76471.88;5102607;27;20028;-69
2022/11/08 06:15:43;;;;;;;;;;;;;;;-142.75;100.00;76458.09;5103466;28;20031;-67
2022/11/08 06:18:08;;;;;;;1.60;0.90;;;;;;;-142.75;100.00;76448.25;5102389;27;20518;-68
2022/11/08 06:20:34;;;;;;;3.95;1.20;;;;;;;-142.75;100.00;76440.38;5084831;28;20063;-68
2022/11/08 06:22:59;;;;;;;4.43;1.30;;;;;;;-142.75;100.00;76434.47;5102320;28;20652;-67
2022/11/08 06:25:24;;;;;;;3.35;1.05;;;;;;;-142.75;100.00;76432.50;5103175;28;20081;-68
2022/11/08 06:27:49;;;;;;;4.93;1.15;;;;;;;-142.75;100.00;76432.50;5102052;28;20032;-66
2022/11/08 06:30:15;;;;;;;6.53;1.20;;;;;;;-142.75;100.00;76426.59;5084459;28;20816;-67
2022/11/08 06:32:40;;;;;;;6.38;1.15;;;;;;;-142.75;100.00;76428.56;5103065;28;20035;-68
2022/11/08 06:35:06;;;;;;;4.43;0.90;;;;;;;-142.75;100.00;76412.81;5084049;28;20026;-69
2022/11/08 06:37:33;;;;;;;4.50;1.00;;;;;;;-142.75;100.00;76393.13;5102320;28;20050;-69
2022/11/08 06:39:59;;;;;;;2.38;0.80;;;;;;;-142.75;100.00;76369.50;5083759;28;20430;-68
2022/11/08 06:42:25;;;;;;;2.75;0.95;;;;;;;-142.75;100.00;76377.38;5103019;28;20050;-69
2022/11/08 06:44:50;;;;;;;1.40;0.70;;;;;;;-142.75;100.00;76385.25;5102282;28;20068;-69
2022/11/08 06:47:16;;;;;;;4.70;1.27;;;;;;;-142.75;100.00;76377.38;5101987;28;20027;-69
2022/11/08 06:49:41;;;;;;;6.80;1.13;;;;;;;-142.75;100.00;76357.69;5102613;28;20020;-68
2022/11/08 06:52:07;;;;;;;5.25;0.88;;;;;;;-142.75;100.00;76363.59;5101800;28;20427;-69
2022/11/08 06:54:32;;;;;;;;;;;;;;;-142.75;100.00;76353.78;5102718;28;20047;-69
2022/11/08 06:56:59;;;;;;;3.45;0.90;;;;;;;-142.75;100.00;76357.69;5083044;28;20277;-68
2022/11/08 06:59:26;;;;;;;4.00;1.58;;;;;;;-142.75;100.00;76345.91;5102183;28;20136;-69
2022/11/08 07:01:51;;;;;;;4.10;1.08;;;;;;;-142.75;100.00;76355.72;5102270;28;20755;-69
2022/11/08 07:04:17;;;;;;;7.93;1.20;;;;;;;-142.75;100.00;76347.84;5102045;28;20092;-69
2022/11/08 07:06:42;;;;;;;2.47;0.90;;;;;;;-142.75;100.00;76340.00;5101715;28;20024;-68
2022/11/08 07:09:08;;;;;;;3.70;0.95;;;;;;;-142.75;100.00;76355.72;5102019;28;20038;-69
2022/11/08 07:11:33;;;;;;;3.90;0.80;;;;;;;-142.75;100.00;76353.78;5102109;28;20559;-68
2022/11/08 07:13:58;;;;;;;;;;;;;;;-142.75;100.00;76338.03;5101881;28;20024;-70
2022/11/08 07:16:23;;;;;;;8.23;1.83;;;;;;;-142.75;100.00;76345.91;5100610;28;20504;-67
2022/11/08 07:18:50;;;;;;;;;;;;;;;-142.75;100.00;76345.91;5083400;28;20027;-69
2022/11/08 07:21:15;;;;;;;3.17;1.30;;;;;;;-142.75;100.00;76326.22;5101639;28;19919;-68
2022/11/08 07:23:40;;;;;;;6.05;0.95;;;;;;;-142.75;100.00;76338.03;5102025;28;20038;-69
2022/11/08 07:26:07;;;;;;;5.95;1.40;;;;;;;-142.75;100.00;76332.13;5101265;28;20892;-69
2022/11/08 07:28:33;;;;;;;6.43;1.08;;;;;;;-142.75;100.00;76341.97;5098843;28;20092;-69
2022/11/08 07:31:00;;;;;;;2.72;1.13;;;;;;;-142.75;100.00;76318.34;5101345;28;20044;-69
2022/11/08 07:33:26;;;;;;;2.13;0.70;;;;;;;-142.75;100.00;76320.31;5101950;28;20031;-68
2022/11/08 07:35:51;;;;;;;5.40;0.88;;;;;;;-142.75;100.00;76328.19;5101442;28;20020;-69
2022/11/08 07:38:16;;;;;;;4.85;1.20;;;;;;;-142.75;100.00;76332.13;5100611;28;20227;-66
2022/11/08 07:40:42;;;;;;;;;;;;;;;-142.75;100.00;76334.09;5101966;28;20024;-65
2022/11/08 07:43:07;;;;;;;3.95;1.13;;;;;;;-142.75;100.00;76345.91;5100927;28;20428;-67
2022/11/08 07:45:32;;;;;;;3.45;1.45;;;;;;;-142.75;100.00;76330.16;5101710;28;20027;-67
2022/11/08 07:48:03;;;;;;;6.00;1.80;;;;;;;-142.75;100.00;76343.94;5099851;28;20031;-65
2022/11/08 07:50:28;;;;;;;3.28;1.60;;;;;;;-142.75;100.00;76341.97;5101413;28;20034;-67
2022/11/08 07:52:54;;;;;;;3.00;1.48;;;;;;;-142.75;100.00;76328.19;5101060;28;20032;-66
2022/11/08 07:55:19;;;;;;;3.35;1.30;;;;;;;-142.75;100.00;76338.03;5101054;28;20020;-66
2022/11/08 07:57:45;;;;;;;6.00;1.20;;;;;;;-142.75;100.00;76341.97;5099939;28;20028;-67
2022/11/08 08:00:11;;;;;;;;;;;;;;;-142.75;100.00;76334.09;5101265;28;20023;-66
2022/11/08 08:02:37;;;;;;;3.67;1.10;;;;;;;-142.75;100.00;76343.94;5100825;28;19955;-64
2022/11/08 08:05:02;;;;;;;3.05;1.20;;;;;;;-142.75;100.00;76349.81;5100635;28;20058;-67
2022/11/08 08:07:27;;;;;;;4.60;1.30;;;;;;;-142.75;100.00;76341.97;5081900;28;20849;-70
2022/11/08 08:09:53;;;;;;;5.03;1.38;;;;;;;-142.75;100.00;76341.97;5100520;28;20857;-67
2022/11/08 08:12:18;;;;;;;5.40;1.02;;;;;;;-142.75;100.00;76349.81;5100249;28;20031;-67
2022/11/08 08:14:43;;;;;;;3.55;1.20;;;;;;;-142.75;100.00;76340.00;5100482;28;20020;-66
2022/11/08 08:17:09;;;;;;;3.08;1.13;;;;;;;-142.75;100.00;76330.16;5099754;28;20046;-67
2022/11/08 08:19:34;;;;;;;5.57;1.23;;;;;;;-142.75;100.00;76320.31;5100695;28;20015;-65
2022/11/08 08:21:59;;;;;;;3.78;1.27;;;;;;;-142.75;100.00;76341.97;5082306;28;20107;-66
2022/11/08 08:24:25;;;;;;;;;;;;;;;-142.75;100.00;76330.16;5101448;28;20020;-68
2022/11/08 08:26:51;;;;;;;3.47;1.20;;;;;;;-142.75;100.00;76345.91;5099888;28;20004;-67
2022/11/08 08:29:16;;;;;;;2.88;1.35;;;;;;;-142.75;100.00;76328.19;5100113;28;20053;-66
2022/11/08 08:31:42;;;;;;;8.52;1.27;;;;;;;-142.75;100.00;76330.16;5100525;28;20039;-66
2022/11/08 08:34:08;;;;;;;3.83;1.10;;;;;;;-142.75;100.00;76322.28;5099995;28;20055;-67
2022/11/08 08:36:33;;;;;;;3.25;1.40;;;;;;;-142.75;100.00;76320.31;5082129;28;20030;-65
2022/11/08 08:38:59;;;;;;;1.65;0.98;;;;;;;-142.75;100.00;76320.31;5099792;28;20035;-66
2022/11/08 08:41:24;;;;;;;5.90;1.50;;;;;;;-142.75;100.00;76324.25;5100115;28;20027;-67
2022/11/08 08:43:49;;;;;;;;;;;;;;;-142.75;100.00;76304.56;5082163;28;20072;-66
2022/11/08 08:46:14;;;;;;;8.30;1.52;;;;;;;-142.75;100.00;76312.44;5100348;28;19916;-66
2022/11/08 08:48:40;;;;;;;3.10;1.02;;;;;;;-142.75;100.00;76312.44;5099924;28;20032;-67
2022/11/08 08:51:05;;;;;;;6.60;1.58;;;;;;;-142.75;100.00;76302.59;5099669;28;20036;-69
2022/11/08 08:53:30;;;;;;;2.38;1.25;;;;;;;-142.75;100.00;76290.78;5100158;28;20028;-67
2022/11/08 08:55:56;;;;;;;2.55;1.10;;;;;;;-142.75;100.00;76284.88;5100102;28;20122;-67
2022/11/08 08:58:21;;;;;;;2.53;1.10;;;;;;;-142.75;100.00;76292.75;5099284;28;20111;-67
2022/11/08 09:00:47;;;;;;;3.30;0.90;;;;;;;-142.75;100.00;76277.00;5099820;28;20023;-66
2022/11/08 09:03:13;;;;;;;5.88;1.13;;;;;;;-142.75;100.00;76282.91;5099654;28;20030;-66
2022/11/08 09:05:45;;;;;;;7.53;1.23;;;;;;;-142.75;100.00;76290.78;5099998;28;20035;-66
2022/11/08 09:08:11;;;;;;;6.30;1.20;;;;;;;-142.75;100.00;76290.78;5098640;28;20081;-66
2022/11/08 09:10:37;;;;;;;3.47;1.23;;;;;;;-142.75;100.00;76294.72;5081058;28;20612;-65
2022/11/08 09:13:02;;;;;;;4.13;1.23;;;;;;;-142.75;100.00;76278.97;5099355;28;20023;-67
2022/11/08 09:15:28;;;;;;;3.80;1.35;;;;;;;-142.75;100.00;76275.03;5099855;28;20812;-66
2022/11/08 09:17:54;;;;;;;2.40;0.98;;;;;;;-142.75;100.00;76263.22;5098818;28;20023;-67
2022/11/08 09:20:19;;;;;;;3.78;1.30;;;;;;;-142.75;100.00;76267.16;5099650;28;20102;-66
2022/11/08 09:22:44;;;;;;;;;;;;;;;-142.75;100.00;76255.34;5099991;28;20069;-66
2022/11/08 09:25:10;;;;;;;3.75;1.20;;;;;;;-142.75;100.00;76253.38;5099254;28;19952;-66
2022/11/08 09:27:35;;;;;;;;;;;;;;;-142.75;100.00;76251.41;5099732;28;20024;-66
2022/11/08 09:30:00;;;;;;;3.33;1.02;;;;;;;-142.75;100.00;76235.66;5098960;28;20090;-66
2022/11/08 09:32:28;;;;;;;2.50;1.10;;;;;;;-142.75;100.00;76215.97;5099511;28;20028;-67
2022/11/08 09:34:55;;;;;;;5.88;1.20;;;;;;;-142.75;100.00;76221.88;5099190;28;20047;-66
2022/11/08 09:37:22;;;;;;;2.80;1.08;;;;;;;-142.75;100.00;76223.84;5080342;28;20020;-67
2022/11/08 09:39:47;;;;;;;2.50;1.20;;;;;;;-142.75;100.00;76239.59;5098395;28;20497;-65
2022/11/08 09:42:31;;;;;;;5.20;0.98;;;;;;;-142.75;100.00;76231.72;5098973;28;20055;-67
2022/11/08 09:45:14;;;;;;;5.47;1.35;;;;;;;-142.75;100.00;76243.53;5099217;28;20038;-66
2022/11/08 09:47:42;;;;;;;3.05;1.02;;;;;;;-142.75;100.00;76231.72;5098832;28;20039;-66
2022/11/08 09:50:20;;;;;;;6.30;1.25;;;;;;;-142.75;100.00;76219.91;5098967;28;20080;-64
2022/11/08 09:52:56;;;;;;;4.25;1.23;;;;;;;-142.75;100.00;76219.91;5098640;28;20080;-66
2022/11/08 09:55:35;;;;;;;7.68;1.58;;;;;;;-142.75;100.00;76215.97;5099142;28;20334;-66
2022/11/08 09:58:12;;;;;;;5.13;1.42;;;;;;;-142.75;100.00;76229.75;5098140;28;20499;-66
2022/11/08 10:00:39;;;;;;;6.72;1.13;;;;;;;-142.75;100.00;76219.91;5099160;28;20621;-66
2022/11/08 10:03:04;;;;;;;3.92;1.52;;;;;;;-142.75;100.00;76221.88;5098881;28;20027;-67
2022/11/08 10:05:39;;;;;;;2.42;1.10;;;;;;;-142.75;100.00;76217.94;5099263;28;20023;-66
2022/11/08 10:08:27;;;;;;;5.10;1.00;;;;;;;-142.75;100.00;76227.78;5097864;28;20057;-67
2022/11/08 10:11:11;;;;;;;3.55;1.10;;;;;;;-142.75;100.00;76227.78;5098726;28;20030;-67
2022/11/08 10:13:58;;;;;;;2.78;0.90;;;;;;;-142.75;100.00;76215.97;5080712;28;20046;-67
2022/11/08 10:16:38;;;;;;;4.70;1.25;;;;;;;-142.75;100.00;76233.69;5098926;28;20035;-65
2022/11/08 10:19:16;;;;;;;7.70;1.85;;;;;;;-142.75;100.00;76229.75;5098387;28;20031;-66
2022/11/08 10:21:58;;;;;;;5.43;1.38;;;;;;;-142.75;100.00;76237.63;5099212;28;20107;-67
2022/11/08 10:24:42;;;;;;;3.42;1.27;;;;;;;-142.75;100.00;76223.84;5099380;28;20028;-66
2022/11/08 10:27:15;;;;;;;7.22;2.97;;;;;;;-142.75;100.00;76227.78;5097919;28;20028;-67
2022/11/08 10:29:44;;;;;;;7.97;1.52;;;;;;;-142.75;100.00;76223.84;5098478;28;20035;-68
2022/11/08 10:32:16;;;;;;;4.22;1.50;;;;;;;-142.75;100.00;76221.88;5098618;28;20674;-66
2022/11/08 10:35:05;;;;;;;5.90;1.50;;;;;;;-142.75;100.00;76219.91;5099292;28;20500;-68
2022/11/08 10:37:32;;;;;;;4.93;1.08;;;;;;;-142.75;100.00;76212.03;5082840;28;20031;-67
2022/11/08 10:40:04;;;;;;;5.03;2.97;;;;;;;-142.75;100.00;76212.03;5098024;28;20023;-65
2022/11/08 10:42:50;;;;;;;5.05;1.42;;;;;;;-142.75;100.00;76196.31;5099024;28;20024;-67
2022/11/08 10:45:15;;;;;;;3.73;1.23;;;;;;;-142.75;100.00;76204.16;5098703;28;20051;-67
2022/11/08 10:47:43;;;;;;;;;;;;;;;-142.75;100.00;76200.25;5080108;28;20060;-66
2022/11/08 10:50:19;;;;;;;6.47;1.52;;;;;;;-142.75;100.00;76186.47;5098851;28;20509;-66
2022/11/08 10:52:52;;;;;;;3.58;1.30;;;;;;;-142.75;100.00;76172.69;5102154;28;20024;-66
2022/11/08 10:55:29;;;;;;;3.33;1.25;;;;;;;-142.75;100.00;76158.91;5102645;28;20030;-67
2022/11/08 10:57:55;;;;;;;8.43;1.50;;;;;;;-142.75;100.00;76149.06;5101573;28;20372;-67
2022/11/08 11:00:20;;;;;;;4.70;1.17;;;;;;;-142.75;100.00;76133.31;5102000;28;20027;-66
2022/11/08 11:02:49;;;;;;;;;;;;;;;-142.75;100.00;76125.44;5102406;28;20348;-66
2022/11/08 11:05:14;;;;;;;3.28;1.00;;;;;;;-142.75;100.00;76109.69;5102081;28;19912;-67
2022/11/08 11:07:40;;;;;;;4.55;1.17;;;;;;;-142.75;100.00;76099.84;5101441;28;20031;-67
2022/11/08 11:10:24;;;;;;;3.35;1.52;;;;;;;-142.75;100.00;76068.38;5101368;28;20035;-67
2022/11/08 11:13:14;;;;;;;4.25;1.02;;;;;;;-142.75;100.00;76036.88;5083591;28;20050;-67
2022/11/08 11:15:50;;;;;;;3.67;1.13;;;;;;;-142.75;100.00;76034.91;5102030;28;20034;-66
2022/11/08 11:18:24;;;;;;;3.33;1.10;;;;;;;-142.75;100.00;76046.72;5100851;28;20023;-65
2022/11/08 11:21:17;;;;;;;5.68;1.40;;;;;;;-142.75;100.00;76046.72;5083575;28;20227;-66
2022/11/08 11:23:46;;;;;;;3.92;1.88;;;;;;;-142.75;100.00;76032.94;5098093;28;20504;-66
2022/11/08 11:26:27;;;;;;;3.05;1.20;;;;;;;-142.75;100.00;76023.09;5101437;28;20038;-68
2022/11/08 11:29:22;;;;;;;4.40;1.05;;;;;;;-142.75;100.00;76030.97;5098890;28;20031;-67
2022/11/08 11:31:50;;;;;;;3.20;1.23;;;;;;;-142.75;100.00;76015.22;5098675;28;20055;-67
2022/11/08 11:34:16;;;;;;;3.20;1.25;;;;;;;-142.75;100.00;75983.72;5101394;28;20088;-67
2022/11/08 11:36:43;;;;;;;3.08;1.00;;;;;;;-142.75;100.00;75948.31;5100722;28;20077;-68